nws-alerts: Checking more than four warning/county codes can delay the loading of your pages. You should use a cron job to get the data.

Nearby METAR Reports

 

KFCI - Richmond/Chester, Virginia, USA
Distance from station: ESE 7mi, 12km
Updated: Mon, 18-Nov-2019 7:56pm EST
Light rain, Overcast
Light rain, Overcast
 Wind from calm
Wind: Calm
Temperature: 45°F , 7°C
Dew Point: 45°F , 7°C
Humidity: 100%
Barometer: 29.77 inHg , 1008.1 hPa
Summary: Light rain
Clouds: Overcast
Visibility: 10 miles , 16 km
Cloud details: Partly cloudy 2400 ft
Partly cloudy 3700 ft
Overcast 6000 ft
2019/11/19 00:56 KFCI 190056Z AUTO 00000KT 10SM -RA SCT024 SCT037 OVC060 07/07 A2977 RMK AO2 SLP092 P0001 T00720067
KPTB - Petersburg, Virginia, USA
Distance from station: SSE 19mi, 31km
Updated: Mon, 18-Nov-2019 7:55pm EST
Light drizzle, Overcast
Light drizzle, Overcast
 Wind from calm
Wind: Calm
Temperature: 46°F , 8°C
Dew Point: 45°F , 7°C
Humidity: 93%
Barometer: 29.77 inHg , 1008.1 hPa
Summary: Light Drizzle
Clouds: Overcast
Visibility: 10 miles , 16 km
Cloud details: Partly cloudy 400 ft
Mostly cloudy 4700 ft
Overcast 6500 ft
2019/11/19 00:55 KPTB 190055Z AUTO 00000KT 10SM -DZ SCT004 BKN047 OVC065 08/07 A2977 RMK AO2 T00800068
 
KRIC - Richmond, Virginia, USA
Distance from station: ENE 19mi, 31km
Updated: Mon, 18-Nov-2019 7:54pm EST
Overcast
Overcast
 Wind from calm
Wind: Calm
Temperature: 46°F , 8°C
Dew Point: 43°F , 6°C
Humidity: 87%
Barometer: 29.76 inHg , 1007.8 hPa
Clouds: Overcast
Visibility: 10 miles , 16 km
Cloud details: Few Clouds 2900 ft
Overcast 7000 ft
2019/11/19 00:54 KRIC 190054Z 00000KT 10SM FEW029 OVC070 08/06 A2976 RMK AO2 RAE26 SLP084 P0001 T00830061
KOFP - Richmond/Hanover, Virginia, USA
Distance from station: NNE 22mi, 36km
Updated: Mon, 18-Nov-2019 7:54pm EST
Rain, Mist, Overcast
Rain, Mist, Overcast
 Wind from calm
Wind: Calm
Temperature: 46°F , 8°C
Dew Point: 45°F , 7°C
Humidity: 93%
Barometer: 29.78 inHg , 1008.5 hPa
Summary: Rain, Mist
Clouds: Overcast
Visibility: 4 miles , 6 km
Cloud details: Few Clouds 2500 ft
Overcast 5000 ft
2019/11/19 00:54 KOFP 190054Z AUTO 00000KT 4SM RA BR FEW025 OVC050 08/07 A2978 RMK AO2 SLP086 P0009 T00780067
 
KW96 - Quinton, Virginia, USA
Distance from station: E 28mi, 46km
Updated: Mon, 18-Nov-2019 8:15pm EST
Overcast
Overcast
 Wind from calm
Wind: Calm
Temperature: 45°F , 7°C
Dew Point: 45°F , 7°C
Humidity: 100%
Barometer: 29.76 inHg , 1007.8 hPa
Clouds: Overcast
Visibility: 10 miles , 16 km
Cloud details: Partly cloudy 2300 ft
Mostly cloudy 5000 ft
Overcast 6000 ft
2019/11/19 01:15 KW96 190115Z AUTO 00000KT 10SM SCT023 BKN050 OVC060 07/07 A2976 RMK AO1 T00720072
KBKT - Blackstone Army, Virginia, USA
Distance from station: SW 30mi, 48km
Updated: Mon, 18-Nov-2019 7:55pm EST
Overcast
Overcast
 Wind from calm
Wind: Calm
Temperature: 45°F , 7°C
Dew Point: 45°F , 7°C
Humidity: 100%
Barometer: 29.76 inHg , 1007.8 hPa
Clouds: Overcast
Visibility: 10 miles , 16 km
Cloud details: Overcast 6000 ft
2019/11/19 00:55 KBKT 190055Z AUTO 00000KT 10SM OVC060 07/07 A2976 RMK AO1 T00660066
 
KW81 - Crewe, Virginia, USA
Distance from station: SW 30mi, 49km
Updated: Mon, 18-Nov-2019 7:55pm EST
Overcast
Overcast
 Wind from calm
Wind: Calm
Temperature: 43°F , 6°C
Dew Point: 41°F , 5°C
Humidity: 93%
Barometer: 29.76 inHg , 1007.8 hPa
Clouds: Overcast
Visibility: 3 miles , 5 km
Cloud details: Overcast 5000 ft
2019/11/19 00:55 KW81 190055Z AUTO 00000KT 3SM OVC050 06/05 A2976 RMK AO1 T00570045
K7W4 - Bumpass, Virginia, USA
Distance from station: N 38mi, 61km
Updated: Mon, 18-Nov-2019 8:15pm EST
Overcast
Overcast
 Wind from SSW
Wind: SSW 6 mph , 9 km/h
Temperature: 45°F , 7°C
Wind Chill: 42°F , 6°C
Dew Point: 43°F , 6°C
Humidity: 93%
Barometer: 29.76 inHg , 1007.8 hPa
Clouds: Overcast
Visibility: 4 miles , 6 km
Cloud details: Mostly cloudy 4500 ft
Overcast 5500 ft
2019/11/19 01:15 K7W4 190115Z AUTO 20005KT 4SM BKN045 OVC055 07/06 A2976 RMK AO1 P0002 T00650057
 
KFVX - Farmville, Virginia, USA
Distance from station: W 43mi, 69km
Updated: Mon, 18-Nov-2019 7:55pm EST
Light rain, Overcast
Light rain, Overcast
 Wind from calm
Wind: Calm
Temperature: 43°F , 6°C
Dew Point: 43°F , 6°C
Humidity: 100%
Barometer: 29.73 inHg , 1006.8 hPa
Summary: Light rain
Clouds: Overcast
Visibility: 4 miles , 6 km
Cloud details: Partly cloudy 300 ft
Mostly cloudy 1800 ft
Overcast 5500 ft
2019/11/19 00:55 KFVX 190055Z AUTO 00000KT 4SM -RA SCT003 BKN018 OVC055 06/06 A2973 RMK AO2 P0003 T00610059
KW31 - Kenbridge, Virginia, USA
Distance from station: SW 43mi, 70km
Updated: Mon, 18-Nov-2019 8:15pm EST
Overcast
Overcast
 Wind from calm
Wind: Calm
Temperature: 43°F , 6°C
Dew Point: 43°F , 6°C
Humidity: 100%
Barometer: 29.76 inHg , 1007.8 hPa
Clouds: Overcast
Visibility: 3 miles , 5 km
Cloud details: Overcast 100 ft
2019/11/19 01:15 KW31 190115Z AUTO 00000KT 3SM OVC001 06/06 A2976 RMK AO1 T00580058
 
KLKU - Louisa, Virginia, USA
Distance from station: NNW 44mi, 72km
Updated: Mon, 18-Nov-2019 7:55pm EST
Rain, Mist, Overcast
Rain, Mist, Overcast
 Wind from calm
Wind: Calm
Temperature: 43°F , 6°C
Dew Point: 41°F , 5°C
Humidity: 93%
Barometer: 29.80 inHg , 1009.1 hPa
Summary: Rain, Mist
Clouds: Overcast
Visibility: 7 miles , 11 km
Cloud details: Overcast 4700 ft
2019/11/19 00:55 KLKU 190055Z AUTO 00000KT 7SM RA BR OVC047 06/05 A2980 RMK AO2 P0009 T00580055
KLVL - Lawrenceville, Virginia, USA
Distance from station: S 46mi, 75km
Updated: Mon, 18-Nov-2019 7:55pm EST
Overcast
Overcast
 Wind from calm
Wind: Calm
Temperature: 45°F , 7°C
Dew Point: 43°F , 6°C
Humidity: 93%
Barometer: 29.77 inHg , 1008.1 hPa
Clouds: Overcast
Visibility: 7 miles , 11 km
Cloud details: Mostly cloudy 500 ft
Overcast 4200 ft
2019/11/19 00:55 KLVL 190055Z AUTO 00000KT 7SM BKN005 OVC042 07/06 A2977 RMK AO1 P0001 T00680063
 
KAKQ - Norfolk/Wakefld, Virginia, USA
Distance from station: SE 47mi, 75km
Updated: Mon, 18-Nov-2019 7:54pm EST
Light rain, Mist, Overcast
Light rain, Mist, Overcast
 Wind from calm
Wind: Calm
Temperature: 46°F , 8°C
Dew Point: 45°F , 7°C
Humidity: 93%
Barometer: 29.77 inHg , 1008.1 hPa
Summary: Light rain, Mist
Clouds: Overcast
Visibility: 2 1/2 miles , 4 km
Cloud details: Partly cloudy 5500 ft
Overcast 7000 ft
2019/11/19 00:54 KAKQ 190054Z AUTO 00000KT 2 1/2SM -RA BR SCT055 OVC070 08/07 A2977 RMK AO2 SLP081 P0001 T00780067
KFYJ - West Point, Virginia, USA
Distance from station: E 48mi, 78km
Updated: Mon, 18-Nov-2019 7:55pm EST
Overcast
Overcast
 Wind from calm
Wind: Calm
Temperature: 45°F , 7°C
Dew Point: 45°F , 7°C
Humidity: 100%
Barometer: 29.79 inHg , 1008.8 hPa
Clouds: Overcast
Visibility: 10 miles , 16 km
Cloud details: Overcast 6500 ft
2019/11/19 00:55 KFYJ 190055Z AUTO 00000KT 10SM OVC065 07/07 A2979 RMK AO1 P0001 T00720070
 
KXSA - Tappahannock, Virginia, USA
Distance from station: NE 51mi, 82km
Updated: Mon, 18-Nov-2019 8:15pm EST
Light rain, Overcast
Light rain, Overcast
 Wind from calm
Wind: Calm
Temperature: 45°F , 7°C
Dew Point: 45°F , 7°C
Humidity: 100%
Barometer: 29.78 inHg , 1008.5 hPa
Summary: Light rain
Clouds: Overcast
Visibility: 10 miles , 16 km
Cloud details: Overcast 3100 ft
2019/11/19 01:15 KXSA 190115Z AUTO 00000KT 10SM -RA OVC031 07/07 A2978 RMK AO2 T00680068
KEMV - Emporia, Virginia, USA
Distance from station: S 52mi, 84km
Updated: Mon, 18-Nov-2019 8:15pm EST
Overcast
Overcast
 Wind from calm
Wind: Calm
Temperature: 45°F , 7°C
Dew Point: 45°F , 7°C
Humidity: 100%
Barometer: 29.79 inHg , 1008.8 hPa
Clouds: Overcast
Cloud details: Mostly cloudy 500 ft
Mostly cloudy 2700 ft
Overcast 3800 ft
2019/11/19 01:15 KEMV 190115Z AUTO 00000KT BKN005 BKN027 OVC038 07/07 A2979 RMK AO2 T00720072
 
KJGG - Williamsburg, Virginia, USA
Distance from station: ESE 53mi, 85km
Updated: Mon, 18-Nov-2019 7:55pm EST
Overcast
Overcast
 Wind from calm
Wind: Calm
Temperature: 46°F , 8°C
Dew Point: 46°F , 8°C
Humidity: 100%
Barometer: 29.78 inHg , 1008.5 hPa
Clouds: Overcast
Visibility: 7 miles , 11 km
Cloud details: Partly cloudy 3400 ft
Partly cloudy 4200 ft
Overcast 6000 ft
2019/11/19 00:55 KJGG 190055Z AUTO 00000KT 7SM SCT034 SCT042 OVC060 08/08 A2978 RMK AO1 P0001
KAVC - South Hill/Meckl, Virginia, USA
Distance from station: SSW 56mi, 90km
Updated: Mon, 18-Nov-2019 7:55pm EST
Overcast
Overcast
 Wind from calm
Wind: Calm
Temperature: 43°F , 6°C
Dew Point: 41°F , 5°C
Humidity: 93%
Barometer: 29.83 inHg , 1010.2 hPa
Clouds: Overcast
Visibility: 10 miles , 16 km
Cloud details: Partly cloudy 400 ft
Mostly cloudy 4800 ft
Overcast 6000 ft
2019/11/19 00:55 KAVC 190055Z AUTO 00000KT 10SM SCT004 BKN048 OVC060 06/05 A2983 RMK AO2 T00550045
 
KGVE - Gordonsville, Virginia, USA
Distance from station: NNW 58mi, 93km
Updated: Mon, 18-Nov-2019 7:55pm EST
Mist, Overcast
Mist, Overcast
 Wind from calm
Wind: Calm
Temperature: 43°F , 6°C
Dew Point: 43°F , 6°C
Humidity: 100%
Barometer: 29.75 inHg , 1007.5 hPa
Summary: Mist
Clouds: Overcast
Visibility: 5 miles , 8 km
Cloud details: Partly cloudy 1400 ft
Mostly cloudy 4000 ft
Overcast 4800 ft
2019/11/19 00:55 KGVE 190055Z AUTO 00000KT 5SM BR SCT014 BKN040 OVC048 06/06 A2975 RMK AO1 P0009 T00630063
KEZF - Fredericksb/Shan, Virginia, USA
Distance from station: N 59mi, 95km
Updated: Mon, 18-Nov-2019 7:55pm EST
Rain, Overcast
Rain, Overcast
 Wind from calm
Wind: Calm
Temperature: 45°F , 7°C
Dew Point: 45°F , 7°C
Humidity: 100%
Barometer: 29.77 inHg , 1008.1 hPa
Summary: Rain
Clouds: Overcast
Visibility: 10 miles , 16 km
Cloud details: Mostly cloudy 5000 ft
Mostly cloudy 6500 ft
Overcast 7000 ft
2019/11/19 00:55 KEZF 190055Z AUTO 00000KT 10SM RA BKN050 BKN065 OVC070 07/07 A2977 RMK AO2 T00700070